Terminal Aerodrome Forecast
Issued by NWS North Platte, NE

Home | Current Version | Previous Version | Text Only | Print | Product List | Glossary On
Versions: 1 2 3 4 5 6 7 8 9 10 11 12 13 14 15 16 17 18 19 20 21
000
FTUS43 KLBF 182300 RRA
TAFVTN
TAF
KVTN 182343Z 1900/1924 19024G33KT P6SM OVC300
     FM190900 VRB06KT P6SM SCT120 SCT300
     FM191100 31007KT P6SM SCT120 OVC250=

USA.gov is the U.S. government's official web portal to all federal, state and local government web resources and services.